Time;durP1;ratioP1;P1;durP2;ratioP2;P2;SDS_P1;SDS_P2;PMS_P1;PMS_P2;Temp;Humidity;BMP_temperature;BMP_pressure;BME280_temperature;BME280_humidity;BME280_pressure;Samples;Min_cycle;Max_cycle;Signal;HPM_P1;HPM_P2
2022/03/02 00:01:53;;;;;;;24.55;11.98;;;0.20;89.20;;;;;;4908572;29;20083;-82
2022/03/02 00:04:41;;;;;;;22.55;11.40;;;0.20;89.30;;;;;;4893705;29;20032;-80
2022/03/02 00:07:43;;;;;;;;;;;0.30;88.50;;;;;;4909856;29;20048;-80
2022/03/02 00:10:14;;;;;;;23.85;12.13;;;0.20;88.30;;;;;;4868982;29;19956;-80
2022/03/02 00:12:52;;;;;;;26.42;12.38;;;0.20;88.30;;;;;;4864883;29;20060;-80
2022/03/02 00:15:17;;;;;;;22.40;11.27;;;0.20;88.60;;;;;;4866005;29;20220;-81
2022/03/02 00:17:46;;;;;;;22.58;11.65;;;0.40;89.00;;;;;;4867762;29;20030;-80
2022/03/02 00:20:12;;;;;;;;;;;0.30;88.50;;;;;;4877491;29;20045;-80
2022/03/02 00:23:15;;;;;;;20.60;11.05;;;0.40;89.00;;;;;;4890674;29;19914;-79
2022/03/02 00:25:47;;;;;;;24.25;12.13;;;0.30;88.90;;;;;;4905512;29;20262;-80
2022/03/02 00:28:17;;;;;;;18.83;10.82;;;0.40;89.40;;;;;;4891415;29;20315;-81
2022/03/02 00:30:50;;;;;;;20.55;11.60;;;0.50;88.70;;;;;;4893134;29;20036;-80
2022/03/02 00:33:40;;;;;;;22.20;11.43;;;0.60;88.10;;;;;;4908567;29;20028;-81
2022/03/02 00:36:06;;;;;;;20.27;11.38;;;0.70;87.60;;;;;;4908670;29;20037;-80
2022/03/02 00:41:29;;;;;;;24.73;11.43;;;1.00;86.90;;;;;;4909550;29;20099;-79
2022/03/02 00:43:55;;;;;;;18.73;11.25;;;1.00;86.20;;;;;;4893681;29;20087;-79
2022/03/02 00:46:46;;;;;;;20.63;11.75;;;1.00;86.20;;;;;;4912898;29;20037;-80
2022/03/02 00:49:16;;;;;;;17.33;9.95;;;1.00;85.60;;;;;;4911230;29;20311;-79
2022/03/02 00:51:45;;;;;;;19.02;10.93;;;1.00;86.40;;;;;;4898939;29;20288;-80
2022/03/02 00:54:42;;;;;;;20.27;11.52;;;1.00;85.80;;;;;;4908783;29;20039;-80
2022/03/02 00:57:08;;;;;;;20.55;10.65;;;0.90;85.50;;;;;;4908773;29;20048;-82
2022/03/02 00:59:34;;;;;;;21.17;11.00;;;0.90;86.00;;;;;;4909365;29;20016;-79
2022/03/02 01:02:09;;;;;;;16.60;10.30;;;0.90;86.40;;;;;;4892450;29;20059;-79
2022/03/02 01:04:35;;;;;;;15.38;9.55;;;1.00;86.40;;;;;;4892184;29;20028;-80
2022/03/02 01:07:00;;;;;;;17.00;10.05;;;1.20;86.00;;;;;;4910027;29;20042;-80
2022/03/02 01:09:41;;;;;;;18.15;10.27;;;1.20;85.80;;;;;;4909011;29;20032;-79
2022/03/02 01:21:40;;;;;;;15.98;10.15;;;1.20;85.70;;;;;;4815132;29;20136;-80
2022/03/02 01:24:12;;;;;;;18.35;10.20;;;1.10;85.60;;;;;;4815106;29;20043;-81
2022/03/02 01:26:38;;;;;;;17.98;10.25;;;1.00;85.70;;;;;;4800410;29;20060;-80
2022/03/02 01:29:04;;;;;;;17.48;10.15;;;1.00;86.20;;;;;;4796914;29;20043;-79
2022/03/02 01:31:34;;;;;;;15.93;10.05;;;1.00;86.50;;;;;;4781491;30;20039;-80
2022/03/02 01:34:00;;;;;;;16.67;10.48;;;0.90;86.60;;;;;;4796911;30;20046;-79
2022/03/02 01:36:25;;;;;;;20.27;10.77;;;0.90;86.70;;;;;;4796670;30;20083;-80
2022/03/02 01:38:52;;;;;;;20.23;11.15;;;0.90;86.50;;;;;;4796809;30;20062;-81
2022/03/02 01:41:22;;;;;;;17.15;10.32;;;0.80;86.70;;;;;;4785680;30;20031;-80
2022/03/02 01:47:26;;;;;;;16.90;10.52;;;0.80;87.30;;;;;;4810759;29;20108;-80
2022/03/02 01:49:52;;;;;;;20.25;11.35;;;0.60;87.60;;;;;;4806929;29;20085;-79
2022/03/02 01:52:18;;;;;;;18.63;10.18;;;0.50;88.30;;;;;;4798253;30;20043;-80
2022/03/02 01:54:47;;;;;;;17.40;11.38;;;0.50;88.40;;;;;;4813350;29;20046;-80
2022/03/02 01:57:17;;;;;;;16.13;9.55;;;0.40;88.50;;;;;;4858142;29;20079;-81
2022/03/02 02:03:21;;;;;;;17.83;10.45;;;0.30;89.00;;;;;;4889876;29;20322;-80
2022/03/02 02:05:50;;;;;;;19.23;10.07;;;0.40;88.30;;;;;;4889941;29;20033;-80
2022/03/02 02:08:41;;;;;;;17.13;9.60;;;0.40;88.50;;;;;;4888565;29;20040;-79
2022/03/02 02:11:12;;;;;;;17.60;10.50;;;0.30;88.60;;;;;;4889660;29;20056;-79
2022/03/02 02:13:44;;;;;;;18.23;10.30;;;0.30;89.10;;;;;;4889058;29;20032;-81
2022/03/02 02:16:13;;;;;;;18.42;10.88;;;0.20;89.60;;;;;;4889709;29;20037;-79
2022/03/02 02:18:45;;;;;;;19.60;10.20;;;0.10;89.70;;;;;;4889056;29;20097;-78
2022/03/02 02:24:26;;;;;;;18.42;10.48;;;-0.20;90.20;;;;;;4889025;29;20067;-80
2022/03/02 02:26:53;;;;;;;21.05;10.73;;;-0.30;90.50;;;;;;4888626;29;20319;-79
2022/03/02 02:29:25;;;;;;;22.85;11.05;;;-0.30;90.40;;;;;;4888009;29;20028;-79
2022/03/02 02:31:51;;;;;;;18.00;10.60;;;-0.30;90.60;;;;;;4888176;29;20226;-80
2022/03/02 02:34:43;;;;;;;20.02;10.93;;;-0.40;90.50;;;;;;4888046;29;20104;-79
2022/03/02 02:37:09;;;;;;;20.88;10.57;;;-0.30;90.60;;;;;;4883554;29;20049;-79
2022/03/02 02:39:41;;;;;;;18.90;10.95;;;-0.40;90.50;;;;;;4888269;29;20065;-80
2022/03/02 02:45:28;;;;;;;20.27;11.27;;;-0.50;90.60;;;;;;4888868;29;20037;-80
2022/03/02 02:47:55;;;;;;;17.75;10.52;;;-0.50;90.90;;;;;;4888342;29;20040;-80
2022/03/02 02:50:46;;;;;;;17.10;10.82;;;-0.70;90.70;;;;;;4889127;29;20060;-80
2022/03/02 02:53:16;;;;;;;18.95;11.18;;;-0.80;90.80;;;;;;4888902;29;20052;-80
2022/03/02 02:59:49;;;;;;;16.50;9.60;;;-0.80;91.10;;;;;;4888770;29;20061;-79
2022/03/02 03:02:21;;;;;;;20.45;11.98;;;-0.80;91.00;;;;;;4872623;29;20032;-80
2022/03/02 03:04:47;;;;;;;17.48;10.85;;;-0.90;91.20;;;;;;4887630;29;20029;-80
2022/03/02 03:07:15;;;;;;;18.48;11.45;;;-1.00;91.20;;;;;;4888417;29;20112;-80
2022/03/02 03:09:43;;;;;;;;;;;-1.10;91.70;;;;;;4856595;29;20387;-79
2022/03/02 03:12:18;;;;;;;15.93;9.43;;;-1.10;91.50;;;;;;4887255;29;19915;-80
2022/03/02 03:17:59;;;;;;;20.20;10.63;;;-1.00;91.70;;;;;;4886877;29;20037;-79
2022/03/02 03:21:22;;;;;;;19.27;10.98;;;-1.00;91.80;;;;;;4887092;29;20331;-80
2022/03/02 03:23:48;;;;;;;20.02;10.60;;;-1.10;91.50;;;;;;4816110;29;20117;-79
2022/03/02 03:26:17;;;;;;;19.50;10.85;;;-1.10;91.60;;;;;;4831820;29;20070;-80
2022/03/02 03:28:44;;;;;;;19.73;11.63;;;-1.30;91.80;;;;;;4831024;29;20110;-79
2022/03/02 03:31:10;;;;;;;21.65;11.20;;;-1.20;92.10;;;;;;4821943;29;20103;-80
2022/03/02 03:34:01;;;;;;;19.75;11.07;;;-1.20;92.10;;;;;;4848683;29;20135;-79
2022/03/02 03:36:27;;;;;;;18.50;11.48;;;-1.10;92.10;;;;;;4849174;29;20034;-80
2022/03/02 03:38:54;;;;;;;20.08;11.77;;;-1.10;92.00;;;;;;4849351;29;20034;-78
2022/03/02 03:41:19;;;;;;;20.25;11.57;;;-1.10;92.00;;;;;;4849743;29;20038;-80
2022/03/02 03:43:47;;;;;;;17.45;10.48;;;-1.20;92.10;;;;;;4846962;29;20396;-79
2022/03/02 03:46:15;;;;;;;20.27;10.73;;;-1.30;92.20;;;;;;4831387;29;20022;-79
2022/03/02 03:48:41;;;;;;;18.75;11.07;;;-1.40;92.40;;;;;;4830931;29;20271;-79
2022/03/02 03:51:12;;;;;;;19.15;10.95;;;-1.50;92.60;;;;;;4833771;29;20030;-79
2022/03/02 03:53:38;;;;;;;20.00;12.32;;;-1.40;93.00;;;;;;4854821;29;20200;-80
2022/03/02 03:56:16;;;;;;;23.73;11.55;;;-1.40;92.80;;;;;;4910712;29;20043;-80
2022/03/02 03:58:48;;;;;;;22.80;12.48;;;-1.40;92.80;;;;;;4909088;29;20280;-80
2022/03/02 04:01:17;;;;;;;24.58;12.50;;;-1.50;93.00;;;;;;4894396;29;20037;-79
2022/03/02 04:03:48;;;;;;;24.00;12.65;;;-1.50;93.00;;;;;;4908813;29;20060;-79
2022/03/02 04:06:16;;;;;;;22.58;12.75;;;-1.50;93.00;;;;;;4910448;29;20048;-80
2022/03/02 04:08:45;;;;;;;25.65;12.95;;;-1.40;93.20;;;;;;4908886;29;20140;-79
2022/03/02 04:11:11;;;;;;;25.15;12.73;;;-1.50;93.30;;;;;;4909284;29;20218;-80
2022/03/02 04:13:37;;;;;;;20.83;12.00;;;-1.40;93.10;;;;;;4909858;29;20056;-80
2022/03/02 04:16:19;;;;;;;20.58;11.85;;;-1.40;93.00;;;;;;4909166;29;20032;-80
2022/03/02 04:18:45;;;;;;;24.02;12.20;;;-1.50;93.00;;;;;;4909725;29;20048;-81
2022/03/02 04:24:22;;;;;;;21.55;12.45;;;-1.50;92.90;;;;;;4852318;29;20036;-80
2022/03/02 04:26:48;;;;;;;24.95;12.15;;;-1.40;92.80;;;;;;4852009;29;20293;-80
2022/03/02 04:29:14;;;;;;;25.98;12.80;;;-1.40;92.50;;;;;;4836983;29;20082;-80
2022/03/02 04:31:43;;;;;;;18.20;10.77;;;-1.50;92.40;;;;;;4851117;29;20255;-80
2022/03/02 04:34:15;;;;;;;20.00;11.55;;;-1.60;92.40;;;;;;4821564;29;20038;-79
2022/03/02 04:36:41;;;;;;;20.73;11.57;;;-1.80;92.70;;;;;;4836496;29;20041;-79
2022/03/02 04:39:27;;;;;;;16.60;10.48;;;-1.90;93.10;;;;;;4782979;30;20249;-79
2022/03/02 04:41:59;;;;;;;18.58;10.63;;;-1.90;93.50;;;;;;4780359;30;20039;-80
2022/03/02 04:44:25;;;;;;;20.15;12.15;;;-1.90;93.90;;;;;;4779636;30;20067;-80
2022/03/02 04:46:51;;;;;;;20.45;11.13;;;-1.90;94.30;;;;;;4779179;30;20110;-80
2022/03/02 04:52:53;;;;;;;19.42;11.07;;;-1.80;94.10;;;;;;4779475;30;20089;-80
2022/03/02 04:55:19;;;;;;;20.58;11.48;;;-1.70;93.80;;;;;;4779378;30;20059;-80
2022/03/02 04:57:54;;;;;;;21.92;11.52;;;-1.70;93.50;;;;;;4779021;30;20262;-79
2022/03/02 05:00:45;;;;;;;29.13;13.68;;;-1.60;93.40;;;;;;4776044;29;20038;-79
2022/03/02 05:03:35;;;;;;;29.55;13.43;;;-1.60;93.30;;;;;;4835995;29;20042;-78
2022/03/02 05:06:08;;;;;;;32.40;12.77;;;-1.70;93.20;;;;;;4843338;29;20022;-80
2022/03/02 05:08:34;;;;;;;29.48;13.18;;;-1.60;93.00;;;;;;4846506;29;20034;-81
2022/03/02 05:11:05;;;;;;;24.33;12.15;;;-1.60;93.00;;;;;;4840349;29;20057;-80
2022/03/02 05:13:40;;;;;;;23.70;11.98;;;-1.60;93.10;;;;;;4833586;29;20034;-78
2022/03/02 05:16:06;;;;;;;21.60;11.85;;;-1.60;93.20;;;;;;4857959;29;20044;-78
2022/03/02 05:18:44;;;;;;;21.67;11.93;;;-1.60;93.00;;;;;;4908405;29;20353;-78
2022/03/02 05:21:10;;;;;;;23.95;12.90;;;-1.60;93.00;;;;;;4909531;29;20276;-81
2022/03/02 05:23:38;;;;;;;29.08;13.10;;;-1.60;93.10;;;;;;4910632;29;20044;-80
2022/03/02 05:26:07;;;;;;;;;;;-1.50;93.20;;;;;;4910147;29;20039;-79
2022/03/02 05:28:34;;;;;;;27.30;12.65;;;-1.40;93.10;;;;;;4907445;29;19910;-79
2022/03/02 05:31:00;;;;;;;27.30;13.32;;;-1.30;93.10;;;;;;4908175;29;20103;-79
2022/03/02 05:33:26;;;;;;;25.60;13.82;;;-1.30;92.80;;;;;;4910103;29;20032;-79
2022/03/02 05:36:00;;;;;;;25.98;13.60;;;-1.30;92.80;;;;;;4908896;29;20031;-78
2022/03/02 05:38:38;;;;;;;24.10;12.95;;;-1.30;92.90;;;;;;4907374;29;20033;-79
2022/03/02 05:41:07;;;;;;;;;;;-1.30;92.90;;;;;;4909411;29;20024;-79
2022/03/02 05:43:34;;;;;;;23.30;12.40;;;-1.30;93.00;;;;;;4890864;29;20119;-80
2022/03/02 05:46:00;;;;;;;25.80;12.70;;;-1.40;93.10;;;;;;4907682;29;20077;-78
2022/03/02 05:48:26;;;;;;;25.35;13.30;;;-1.40;93.30;;;;;;4906830;29;20028;-78
2022/03/02 05:50:55;;;;;;;24.15;12.63;;;-1.40;93.40;;;;;;4907038;29;20029;-79
2022/03/02 05:53:20;;;;;;;23.35;12.38;;;-1.40;93.20;;;;;;4906494;29;20040;-79
2022/03/02 05:55:46;;;;;;;22.38;12.50;;;-1.40;93.10;;;;;;4890266;29;20148;-79
2022/03/02 05:58:40;;;;;;;21.10;12.80;;;-1.40;92.70;;;;;;4908819;29;20032;-79
2022/03/02 06:01:05;;;;;;;23.05;12.55;;;-1.20;92.70;;;;;;4888858;29;20039;-80
2022/03/02 06:03:32;;;;;;;23.10;12.70;;;-1.20;92.40;;;;;;4890105;29;20192;-79
2022/03/02 06:05:58;;;;;;;21.15;12.70;;;-1.10;92.50;;;;;;4890265;29;20028;-79
2022/03/02 06:08:29;;;;;;;24.70;13.13;;;-1.20;92.40;;;;;;4906619;29;20195;-80
2022/03/02 06:11:08;;;;;;;23.80;13.18;;;-1.10;92.50;;;;;;4905820;29;20032;-80
2022/03/02 06:13:57;;;;;;;25.67;13.25;;;-1.10;92.60;;;;;;4906286;29;20079;-80
2022/03/02 06:16:26;;;;;;;23.77;13.15;;;-1.10;92.50;;;;;;4905364;29;20044;-80
2022/03/02 06:18:52;;;;;;;25.55;13.77;;;-1.00;92.70;;;;;;4890252;29;20021;-81
2022/03/02 06:21:33;;;;;;;24.63;14.73;;;-1.00;92.60;;;;;;4907287;29;20116;-81
2022/03/02 06:24:00;;;;;;;23.90;13.88;;;-0.90;92.70;;;;;;4906866;29;20149;-81
2022/03/02 06:26:41;;;;;;;23.58;13.70;;;-0.80;92.40;;;;;;4890198;29;20056;-81
2022/03/02 06:29:07;;;;;;;25.35;13.52;;;-0.70;92.10;;;;;;4873493;29;20100;-81
2022/03/02 06:35:07;;;;;;;24.67;13.82;;;-0.60;91.70;;;;;;4907036;29;20143;-79
2022/03/02 06:37:34;;;;;;;26.92;13.98;;;-0.60;91.50;;;;;;4905965;29;20036;-82
2022/03/02 06:40:03;;;;;;;27.80;13.90;;;-0.50;91.40;;;;;;4909084;29;20039;-79
2022/03/02 06:43:04;;;;;;;26.83;13.95;;;-0.30;91.60;;;;;;4908579;29;20295;-79
2022/03/02 06:45:48;;;;;;;30.70;14.35;;;-0.30;90.50;;;;;;4921756;29;20056;-81
2022/03/02 06:48:19;;;;;;;34.53;15.05;;;-0.20;90.80;;;;;;4905700;29;20036;-79
2022/03/02 06:50:49;;;;;;;34.33;16.30;;;0.00;90.60;;;;;;4906322;29;20105;-78
2022/03/02 06:53:42;;;;;;;30.02;14.75;;;0.00;90.30;;;;;;4885957;29;20369;-78
2022/03/02 06:56:08;;;;;;;26.85;13.10;;;0.20;90.10;;;;;;4870470;29;20040;-81
2022/03/02 06:58:51;;;;;;;26.08;13.27;;;0.30;89.50;;;;;;4886007;29;20037;-80
2022/03/02 07:01:36;;;;;;;25.50;12.95;;;0.40;89.40;;;;;;4878659;29;20047;-82
2022/03/02 07:04:27;;;;;;;21.30;13.10;;;0.60;89.30;;;;;;4904293;29;20285;-81
2022/03/02 07:07:09;;;;;;;24.40;12.73;;;0.60;88.00;;;;;;4904045;29;20343;-79
2022/03/02 07:09:35;;;;;;;34.38;14.18;;;0.40;87.90;;;;;;4904528;29;20031;-79
2022/03/02 07:12:03;;;;;;;24.40;14.35;;;0.60;87.90;;;;;;4904062;29;20319;-79
2022/03/02 07:14:31;;;;;;;28.75;14.15;;;0.60;88.10;;;;;;4904231;29;20044;-80
2022/03/02 07:17:03;;;;;;;26.83;13.68;;;0.80;87.50;;;;;;4903365;29;20045;-82
2022/03/02 07:19:29;;;;;;;24.95;12.80;;;0.90;87.40;;;;;;4905528;29;20045;-81
2022/03/02 07:21:56;;;;;;;22.65;13.40;;;1.10;87.00;;;;;;4904209;29;20028;-78
2022/03/02 07:24:52;;;;;;;23.98;13.00;;;1.20;85.80;;;;;;4918820;29;20060;-79
2022/03/02 07:27:18;;;;;;;22.27;13.07;;;1.30;85.90;;;;;;4930139;29;20059;-80
2022/03/02 07:29:47;;;;;;;25.88;13.35;;;1.30;85.40;;;;;;4928520;29;20032;-79
2022/03/02 07:32:14;;;;;;;;;;;1.40;85.60;;;;;;4928753;29;20044;-79
2022/03/02 07:34:42;;;;;;;26.45;14.10;;;1.50;85.30;;;;;;4929507;29;19949;-80
2022/03/02 07:37:10;;;;;;;31.40;14.23;;;1.60;85.10;;;;;;4927478;29;20050;-80
2022/03/02 07:39:36;;;;;;;;;;;1.70;84.70;;;;;;4929383;29;20036;-82
2022/03/02 07:42:14;;;;;;;25.55;13.77;;;1.70;84.70;;;;;;4911733;29;19907;-80
2022/03/02 07:45:08;;;;;;;26.20;13.50;;;1.70;84.50;;;;;;4910600;29;20115;-80
2022/03/02 07:47:38;;;;;;;27.25;14.82;;;1.80;84.50;;;;;;4928494;29;20052;-81
2022/03/02 07:50:11;;;;;;;26.65;12.73;;;1.80;84.40;;;;;;4911482;29;20052;-80
2022/03/02 07:52:38;;;;;;;24.35;13.15;;;2.00;83.70;;;;;;4928573;29;20378;-79
2022/03/02 07:55:10;;;;;;;26.23;13.70;;;2.00;82.90;;;;;;4928743;29;20040;-79
2022/03/02 07:57:41;;;;;;;23.08;12.90;;;1.90;83.40;;;;;;4927533;29;20039;-82
2022/03/02 08:00:09;;;;;;;23.27;13.43;;;2.00;82.90;;;;;;4927853;29;20361;-79
2022/03/02 08:02:35;;;;;;;24.70;13.32;;;2.20;83.30;;;;;;4911524;29;20080;-80
2022/03/02 08:05:02;;;;;;;23.75;12.90;;;2.20;82.40;;;;;;4927012;29;20059;-80
2022/03/02 08:08:06;;;;;;;26.70;13.47;;;2.30;82.30;;;;;;4927926;29;20028;-79
2022/03/02 08:10:31;;;;;;;22.48;13.20;;;2.30;82.80;;;;;;4912150;29;20032;-81
2022/03/02 08:12:57;;;;;;;27.58;14.30;;;2.50;82.60;;;;;;4927340;29;20360;-81
2022/03/02 08:15:24;;;;;;;27.00;14.05;;;2.70;81.80;;;;;;4911363;29;20048;-81
2022/03/02 08:17:50;;;;;;;25.17;12.95;;;2.70;81.10;;;;;;4927458;29;20044;-81
2022/03/02 08:21:06;;;;;;;29.02;15.35;;;2.70;80.50;;;;;;4927668;29;20028;-81
2022/03/02 08:23:38;;;;;;;24.92;14.85;;;2.90;79.20;;;;;;4931490;29;20024;-80
2022/03/02 08:26:04;;;;;;;23.58;13.65;;;2.90;79.50;;;;;;4936143;29;20055;-80
2022/03/02 08:31:09;;;;;;;25.75;13.25;;;3.00;79.60;;;;;;5009816;23;20043;-82
2022/03/02 08:33:35;;;;;;;25.70;13.27;;;3.10;79.10;;;;;;4953756;29;20062;-84
2022/03/02 08:36:11;;;;;;;25.45;13.95;;;3.10;78.80;;;;;;4949003;29;20033;-80
2022/03/02 08:38:46;;;;;;;25.65;12.88;;;3.00;79.40;;;;;;4949426;29;20210;-81
2022/03/02 08:41:12;;;;;;;23.85;13.32;;;3.30;79.20;;;;;;4965120;29;20037;-80
2022/03/02 08:44:13;;;;;;;20.45;11.80;;;3.60;77.80;;;;;;4951002;29;20058;-80
2022/03/02 08:46:45;;;;;;;22.42;12.25;;;3.90;75.80;;;;;;4948730;29;20081;-80
2022/03/02 08:49:16;;;;;;;22.83;12.57;;;4.20;74.70;;;;;;4966157;29;20027;-79
2022/03/02 08:51:50;;;;;;;21.48;12.30;;;4.40;74.50;;;;;;4948300;29;20126;-81
2022/03/02 08:54:38;;;;;;;23.00;12.98;;;4.70;74.10;;;;;;4948887;29;20043;-79
2022/03/02 08:57:09;;;;;;;;;;;4.90;73.90;;;;;;4944829;29;20087;-79
2022/03/02 09:00:03;;;;;;;21.40;12.20;;;5.00;73.60;;;;;;4944119;29;19913;-80
2022/03/02 09:02:43;;;;;;;24.58;13.20;;;5.20;72.80;;;;;;4941386;29;20059;-81
2022/03/02 09:05:09;;;;;;;23.73;11.82;;;5.50;73.20;;;;;;4941217;29;20128;-80
2022/03/02 09:07:37;;;;;;;27.58;14.10;;;5.50;73.70;;;;;;4940671;29;20056;-78
2022/03/02 09:10:08;;;;;;;24.95;13.20;;;5.60;72.50;;;;;;4941608;29;20116;-80
2022/03/02 09:12:36;;;;;;;20.80;13.07;;;5.80;73.10;;;;;;4944656;29;20083;-81
2022/03/02 09:15:05;;;;;;;21.67;12.43;;;5.80;73.40;;;;;;4941435;29;20036;-80
2022/03/02 09:17:31;;;;;;;23.73;12.57;;;6.00;71.30;;;;;;4925206;29;20040;-80
2022/03/02 09:19:57;;;;;;;21.88;12.52;;;6.30;70.60;;;;;;4940736;29;20055;-79
2022/03/02 09:22:44;;;;;;;22.23;12.88;;;6.40;69.10;;;;;;4925382;29;20246;-79
2022/03/02 09:25:16;;;;;;;20.88;11.95;;;6.20;69.50;;;;;;4941320;29;20068;-79
2022/03/02 09:27:43;;;;;;;17.48;10.52;;;6.10;69.20;;;;;;4932342;29;20103;-79
2022/03/02 09:30:10;;;;;;;19.17;10.43;;;6.20;68.40;;;;;;4944189;29;20042;-77
2022/03/02 09:32:40;;;;;;;16.42;10.23;;;6.30;67.50;;;;;;4945334;29;20103;-78
2022/03/02 09:35:13;;;;;;;17.17;11.15;;;6.60;66.90;;;;;;4941438;29;20082;-78
2022/03/02 09:38:17;;;;;;;15.90;10.25;;;6.90;66.40;;;;;;4944179;29;20031;-78
2022/03/02 09:40:44;;;;;;;20.77;10.82;;;7.00;66.30;;;;;;4944522;29;20030;-79
2022/03/02 09:43:19;;;;;;;19.52;10.85;;;6.80;66.40;;;;;;4944657;29;20314;-79
2022/03/02 09:45:47;;;;;;;19.33;11.02;;;7.20;66.90;;;;;;4943208;29;20035;-80
2022/03/02 09:48:27;;;;;;;19.10;12.50;;;7.40;66.30;;;;;;4945204;29;20182;-78
2022/03/02 09:50:59;;;;;;;20.30;11.25;;;7.70;65.50;;;;;;4945154;29;20096;-79
2022/03/02 09:53:40;;;;;;;19.02;11.07;;;7.70;65.10;;;;;;4945693;29;20032;-79
2022/03/02 09:56:07;;;;;;;21.60;11.70;;;7.80;65.10;;;;;;4945267;29;20036;-82
2022/03/02 09:58:38;;;;;;;21.67;12.52;;;7.90;65.00;;;;;;4944580;29;20217;-80
2022/03/02 10:01:15;;;;;;;20.80;11.88;;;8.30;65.00;;;;;;4944055;29;20035;-80
2022/03/02 10:03:50;;;;;;;;;;;8.10;64.40;;;;;;4943599;29;20047;-80
2022/03/02 10:06:20;;;;;;;21.75;11.70;;;8.10;64.00;;;;;;4945411;29;20196;-79
2022/03/02 10:08:48;;;;;;;20.30;11.85;;;8.10;64.50;;;;;;4944168;29;20065;-81
2022/03/02 10:14:48;;;;;;;20.98;11.68;;;8.70;63.90;;;;;;4943839;29;20099;-80
2022/03/02 10:17:28;;;;;;;23.58;12.55;;;9.00;62.50;;;;;;4943528;29;20317;-79
2022/03/02 10:20:26;;;;;;;23.77;12.02;;;8.90;63.40;;;;;;4944416;29;20090;-81
2022/03/02 10:23:30;;;;;;;22.00;11.45;;;8.80;62.80;;;;;;4945919;29;20071;-80
2022/03/02 10:26:28;;;;;;;19.25;11.25;;;9.40;62.40;;;;;;4944698;29;20042;-80
2022/03/02 10:29:31;;;;;;;23.10;11.55;;;9.90;62.20;;;;;;4944129;29;20035;-80
2022/03/02 10:32:13;;;;;;;17.60;10.70;;;10.30;60.60;;;;;;4942534;29;20095;-81
2022/03/02 10:35:15;;;;;;;21.98;11.55;;;10.60;59.90;;;;;;4944935;29;20218;-79
2022/03/02 10:37:58;;;;;;;19.13;11.18;;;10.30;59.60;;;;;;4943749;29;20031;-81
2022/03/02 10:44:05;;;;;;;20.48;11.23;;;10.20;61.00;;;;;;4944257;29;20061;-79
2022/03/02 10:46:45;;;;;;;20.13;10.77;;;10.40;61.20;;;;;;4944810;29;20044;-81
2022/03/02 10:49:21;;;;;;;21.52;11.55;;;10.50;60.00;;;;;;4944971;29;20051;-80
2022/03/02 10:51:52;;;;;;;18.25;10.82;;;10.30;60.70;;;;;;4944566;29;20100;-79
2022/03/02 10:54:24;;;;;;;19.42;11.93;;;10.30;61.40;;;;;;4928218;29;20035;-80
2022/03/02 10:57:13;;;;;;;24.42;12.27;;;10.20;60.30;;;;;;4944203;29;20027;-80
2022/03/02 10:59:43;;;;;;;26.15;12.48;;;9.70;61.30;;;;;;4946414;29;20032;-80
2022/03/02 11:02:11;;;;;;;21.88;12.15;;;9.70;61.70;;;;;;4936239;29;20043;-80
2022/03/02 11:04:48;;;;;;;18.75;11.65;;;9.70;62.30;;;;;;4948430;29;20035;-81
2022/03/02 11:07:16;;;;;;;20.20;11.00;;;9.70;61.60;;;;;;4948593;29;20027;-80
2022/03/02 11:10:10;;;;;;;22.30;12.27;;;10.00;62.40;;;;;;4947553;29;20031;-80
2022/03/02 11:12:44;;;;;;;22.98;11.48;;;9.80;62.60;;;;;;4928456;29;20047;-83
2022/03/02 11:19:16;;;;;;;21.35;12.55;;;10.00;61.40;;;;;;4928575;29;20043;-83
2022/03/02 11:22:07;;;;;;;25.88;12.25;;;10.10;60.90;;;;;;4944122;29;20095;-82
2022/03/02 11:24:33;;;;;;;27.65;13.20;;;10.30;60.60;;;;;;4948551;29;20027;-82
2022/03/02 11:26:58;;;;;;;21.45;12.23;;;10.40;60.00;;;;;;4931070;29;20028;-81
2022/03/02 11:29:28;;;;;;;20.92;12.75;;;10.50;59.80;;;;;;4948403;29;20209;-79
2022/03/02 11:31:54;;;;;;;19.77;12.48;;;10.60;59.50;;;;;;4946230;29;20051;-79
2022/03/02 11:34:23;;;;;;;23.83;12.75;;;10.90;59.70;;;;;;4946013;29;20028;-79
2022/03/02 11:36:55;;;;;;;25.00;13.07;;;11.00;58.60;;;;;;4926920;29;20024;-80
2022/03/02 11:39:26;;;;;;;23.90;12.35;;;11.10;58.80;;;;;;4928126;29;20040;-81
2022/03/02 11:41:55;;;;;;;17.70;11.82;;;11.50;58.20;;;;;;4928475;29;20311;-80
2022/03/02 11:45:02;;;;;;;20.05;12.30;;;11.80;57.50;;;;;;4928560;29;20039;-80
2022/03/02 11:47:55;;;;;;;20.53;12.40;;;11.90;57.00;;;;;;4928463;29;20056;-81
2022/03/02 11:51:18;;;;;;;16.08;11.35;;;11.80;56.80;;;;;;4928349;29;20443;-81
2022/03/02 11:54:13;;;;;;;21.63;12.65;;;11.80;57.00;;;;;;4927829;29;20035;-78
2022/03/02 11:56:39;;;;;;;17.20;11.48;;;12.10;56.80;;;;;;4928514;29;20056;-79
2022/03/02 11:59:06;;;;;;;21.10;12.15;;;12.50;57.10;;;;;;4928131;29;20307;-79
2022/03/02 12:01:59;;;;;;;23.15;11.95;;;13.10;56.10;;;;;;4940508;29;20038;-76
2022/03/02 12:04:24;;;;;;;18.27;11.90;;;13.30;56.50;;;;;;4934099;29;20058;-78
2022/03/02 12:07:12;;;;;;;17.42;11.05;;;13.20;54.90;;;;;;4955183;29;20353;-75
2022/03/02 12:09:40;;;;;;;17.83;10.85;;;13.40;54.70;;;;;;4914201;29;20052;-79
2022/03/02 12:12:20;;;;;;;22.08;11.90;;;13.50;54.80;;;;;;4925701;29;20032;-82
2022/03/02 12:15:40;;;;;;;15.35;11.43;;;13.70;53.50;;;;;;4907915;29;20336;-79
2022/03/02 12:18:08;;;;;;;17.73;11.40;;;13.40;53.50;;;;;;4908142;29;20044;-79
2022/03/02 12:20:53;;;;;;;18.17;11.55;;;13.00;54.20;;;;;;4892852;29;20092;-78
2022/03/02 12:23:22;;;;;;;16.45;10.68;;;13.20;54.40;;;;;;4908295;29;20024;-79
2022/03/02 12:25:52;;;;;;;15.70;10.60;;;13.90;53.50;;;;;;4910072;29;20059;-79
2022/03/02 12:28:21;;;;;;;17.55;10.52;;;15.10;52.20;;;;;;4909529;29;20108;-79
2022/03/02 12:34:46;;;;;;;13.48;10.48;;;15.80;50.40;;;;;;4908060;29;20178;-78
2022/03/02 12:37:13;;;;;;;15.27;10.43;;;15.60;51.20;;;;;;4908164;29;20025;-81
2022/03/02 12:39:41;;;;;;;17.15;11.25;;;15.00;53.00;;;;;;4908009;29;20038;-78
2022/03/02 12:42:08;;;;;;;17.13;11.02;;;14.60;51.90;;;;;;4908830;29;20012;-79
2022/03/02 12:44:49;;;;;;;15.82;11.20;;;14.20;52.70;;;;;;4924350;29;20039;-79
2022/03/02 12:47:48;;;;;;;17.35;10.55;;;13.60;52.80;;;;;;4910168;29;20048;-81
2022/03/02 12:51:11;;;;;;;16.02;10.75;;;13.10;53.90;;;;;;4906898;29;20035;-79
2022/03/02 12:53:43;;;;;;;17.73;10.30;;;12.60;55.10;;;;;;4909473;29;20032;-79
2022/03/02 12:56:09;;;;;;;13.70;9.93;;;12.20;55.20;;;;;;4908593;29;20469;-80
2022/03/02 12:58:37;;;;;;;16.20;10.23;;;12.10;55.40;;;;;;4909397;29;20052;-79
2022/03/02 13:01:03;;;;;;;13.25;9.45;;;11.70;56.10;;;;;;4912738;29;20322;-78
2022/03/02 13:03:42;;;;;;;14.77;9.98;;;11.60;56.10;;;;;;4911185;29;20036;-80
2022/03/02 13:06:42;;;;;;;16.98;10.45;;;11.30;56.30;;;;;;4926424;29;20046;-78
2022/03/02 13:09:18;;;;;;;14.38;9.30;;;11.30;56.50;;;;;;4926991;29;20244;-80
2022/03/02 13:12:46;;;;;;;16.25;9.20;;;11.10;56.80;;;;;;4927614;29;20110;-78
2022/03/02 13:15:30;;;;;;;14.60;9.65;;;10.90;57.20;;;;;;4906760;29;20041;-79
2022/03/02 13:18:07;;;;;;;13.07;9.15;;;10.70;56.80;;;;;;4906775;29;20056;-79
2022/03/02 13:20:34;;;;;;;17.50;8.80;;;10.70;57.00;;;;;;4908110;29;20040;-81
2022/03/02 13:23:23;;;;;;;14.73;8.60;;;10.70;58.50;;;;;;4905710;29;20133;-83
2022/03/02 13:25:58;;;;;;;14.57;8.60;;;10.70;58.40;;;;;;4913774;29;20421;-79
2022/03/02 13:28:29;;;;;;;16.95;8.93;;;10.90;57.60;;;;;;4926484;29;20032;-79
2022/03/02 13:31:04;;;;;;;12.95;8.32;;;11.10;57.30;;;;;;4932834;29;20055;-80
2022/03/02 13:33:30;;;;;;;15.23;9.02;;;11.20;56.90;;;;;;4945389;29;20039;-80
2022/03/02 13:39:49;;;;;;;16.83;8.38;;;11.30;56.90;;;;;;4926823;29;20023;-78
2022/03/02 13:42:22;;;;;;;13.95;8.52;;;11.30;56.30;;;;;;4946798;29;20027;-80
2022/03/02 13:44:48;;;;;;;13.55;8.10;;;11.40;56.20;;;;;;4944576;29;20043;-80
2022/03/02 13:47:15;;;;;;;13.13;8.60;;;11.40;55.70;;;;;;4944862;29;20094;-80
2022/03/02 13:52:50;;;;;;;12.77;8.50;;;11.90;55.30;;;;;;4945452;29;20038;-83
2022/03/02 13:55:27;;;;;;;12.75;8.88;;;12.30;54.90;;;;;;4946702;29;20438;-79
2022/03/02 13:58:36;;;;;;;14.38;8.98;;;12.40;54.20;;;;;;4947672;29;20118;-78
2022/03/02 14:01:24;;;;;;;12.48;8.45;;;12.50;53.30;;;;;;4928391;29;20043;-79
2022/03/02 14:04:13;;;;;;;12.23;8.80;;;12.40;54.10;;;;;;4944399;29;20251;-79
2022/03/02 14:06:51;;;;;;;13.50;8.90;;;12.00;54.40;;;;;;4945142;29;20341;-81
2022/03/02 14:09:35;;;;;;;12.75;8.35;;;12.10;54.90;;;;;;4946168;29;20090;-78
2022/03/02 14:12:16;;;;;;;15.75;8.50;;;11.90;54.30;;;;;;4937180;29;20048;-79
2022/03/02 14:14:51;;;;;;;15.35;9.38;;;11.80;54.60;;;;;;4925333;29;20044;-77
2022/03/02 14:17:50;;;;;;;13.48;8.93;;;11.30;54.50;;;;;;4925045;29;20104;-79
2022/03/02 14:20:46;;;;;;;15.57;8.90;;;11.30;54.50;;;;;;4921936;29;20074;-78
2022/03/02 14:23:21;;;;;;;14.60;8.80;;;11.30;55.30;;;;;;4926579;29;20059;-78